Time;durP1;ratioP1;P1;durP2;ratioP2;P2;SDS_P1;SDS_P2;PMS_P1;PMS_P2;Temp;Humidity;BMP_temperature;BMP_pressure;BME280_temperature;BME280_humidity;BME280_pressure;Samples;Min_cycle;Max_cycle;Signal;HPM_P1;HPM_P2
2023/06/28 00:00:11;;;;;;;2.53;1.17;;;;;;;18.20;64.45;101935.19;5011793;28;99070;-27
2023/06/28 00:02:36;;;;;;;4.85;1.40;;;;;;;18.26;63.29;101939.34;5010695;28;100880;-27
2023/06/28 00:05:08;;;;;;;3.10;1.23;;;;;;;18.20;64.94;101934.31;5012142;28;96529;-27
2023/06/28 00:07:34;;;;;;;3.00;1.70;;;;;;;18.20;63.75;101940.66;5010381;28;96938;-28
2023/06/28 00:09:59;;;;;;;4.43;1.92;;;;;;;18.18;63.44;101930.81;5011615;28;98752;-28
2023/06/28 00:12:26;;;;;;;7.13;2.15;;;;;;;18.29;63.30;101935.47;5012190;28;97314;-27
2023/06/28 00:14:53;;;;;;;5.22;1.73;;;;;;;18.25;63.48;101937.56;5010507;28;96624;-28
2023/06/28 00:17:19;;;;;;;6.00;1.65;;;;;;;18.19;64.12;101933.44;5011767;28;96889;-27
2023/06/28 00:19:48;;;;;;;8.07;2.15;;;;;;;18.19;64.56;101927.09;5009882;28;101304;-27
2023/06/28 00:22:14;;;;;;;8.70;2.13;;;;;;;18.12;64.67;101934.03;5011590;28;97876;-27
2023/06/28 00:24:40;;;;;;;4.10;1.50;;;;;;;18.15;64.10;101933.78;5010449;28;96743;-28
2023/06/28 00:27:05;;;;;;;9.93;2.35;;;;;;;18.20;64.50;101935.19;5011966;28;96751;-27
2023/06/28 00:29:30;;;;;;;3.70;1.60;;;;;;;18.16;64.03;101936.44;5011339;28;99740;-27
2023/06/28 00:31:56;;;;;;;2.55;1.40;;;;;;;18.14;66.29;101932.91;5011747;28;97966;-26
2023/06/28 00:34:21;;;;;;;4.32;1.23;;;;;;;18.15;65.19;101937.41;5011251;28;96610;-29
2023/06/28 00:36:47;;;;;;;5.25;1.55;;;;;;;18.14;65.76;101943.00;5011135;28;96874;-29
2023/06/28 00:39:12;;;;;;;1.38;0.90;;;;;;;18.15;65.16;101937.41;5011850;28;97207;-27
2023/06/28 00:41:37;;;;;;;6.25;0.88;;;;;;;18.23;65.52;101943.19;5015049;28;97350;-27
2023/06/28 00:44:04;;;;;;;3.72;1.38;;;;;;;18.29;67.81;101940.97;5014403;28;97301;-26
2023/06/28 00:46:29;;;;;;;3.63;1.38;;;;;;;18.22;66.15;101932.31;5013711;28;96812;-29
2023/06/28 00:48:55;;;;;;;4.07;1.23;;;;;;;18.30;66.22;101935.34;5015307;28;97393;-29
2023/06/28 00:51:22;;;;;;;2.38;0.80;;;;;;;18.33;65.84;101936.97;5014706;28;97956;-27
2023/06/28 00:53:47;;;;;;;3.88;1.23;;;;;;;18.36;67.05;101936.75;5014691;28;96635;-27
2023/06/28 00:56:13;;;;;;;2.42;1.17;;;;;;;18.38;65.39;101934.78;5015157;28;97021;-27
2023/06/28 00:58:39;;;;;;;1.70;1.02;;;;;;;18.40;66.19;101927.28;5014661;28;98050;-27
2023/06/28 01:01:04;;;;;;;3.45;1.05;;;;;;;18.33;65.63;101924.16;5015108;28;98307;-27
2023/06/28 01:03:29;;;;;;;2.53;1.13;;;;;;;18.30;65.90;101907.91;5014971;28;96656;-28
2023/06/28 01:05:57;;;;;;;2.70;1.25;;;;;;;18.30;66.27;101912.53;5015147;28;96871;-27
2023/06/28 01:08:23;;;;;;;5.70;1.05;;;;;;;18.31;67.24;101917.03;5012628;28;101253;-27
2023/06/28 01:10:50;;;;;;;2.40;1.08;;;;;;;18.33;67.07;101923.25;5013071;28;101406;-26
2023/06/28 01:13:16;;;;;;;2.47;1.00;;;;;;;18.28;66.98;101923.59;4996677;28;96724;-27
2023/06/28 01:15:41;;;;;;;2.10;1.05;;;;;;;18.21;67.34;101912.25;5014697;28;96798;-27
2023/06/28 01:18:07;;;;;;;3.03;1.20;;;;;;;18.23;67.92;101915.75;5014392;28;97452;-27
2023/06/28 01:20:32;;;;;;;3.53;1.20;;;;;;;18.24;67.55;101914.75;5014169;28;98706;-27
2023/06/28 01:22:58;;;;;;;3.67;1.05;;;;;;;18.24;68.03;101916.63;5014600;28;96502;-27
2023/06/28 01:25:23;;;;;;;3.08;1.00;;;;;;;18.26;69.88;101917.41;5013340;28;96879;-28
2023/06/28 01:27:50;;;;;;;3.83;1.20;;;;;;;18.28;68.81;101922.75;5014512;28;98021;-27
2023/06/28 01:30:17;;;;;;;1.17;0.90;;;;;;;18.26;68.65;101911.91;5012873;28;100918;-27
2023/06/28 01:32:43;;;;;;;3.35;1.08;;;;;;;18.19;68.79;101910.63;5012482;28;96792;-27
2023/06/28 01:35:10;;;;;;;4.85;1.52;;;;;;;18.14;69.02;101916.47;5012523;28;96996;-27
2023/06/28 01:37:37;;;;;;;5.70;2.00;;;;;;;18.12;69.98;101906.63;4992585;28;101170;-27
2023/06/28 01:40:04;;;;;;;6.80;2.30;;;;;;;18.07;69.43;101898.72;4992598;28;99120;-27
2023/06/28 01:42:30;;;;;;;4.38;1.88;;;;;;;18.18;70.15;101920.69;4992710;28;96764;-27
2023/06/28 01:44:55;;;;;;;8.95;2.15;;;;;;;18.16;70.00;101913.59;4994343;28;96741;-28
2023/06/28 01:47:21;;;;;;;3.50;1.58;;;;;;;18.15;68.86;101911.84;4993818;28;99720;-27
2023/06/28 01:49:47;;;;;;;4.05;1.45;;;;;;;18.11;70.15;101913.06;4994117;28;97922;-27
2023/06/28 01:52:13;;;;;;;4.43;1.95;;;;;;;18.15;70.18;101920.09;4993243;28;96574;-28
2023/06/28 01:54:38;;;;;;;4.47;1.75;;;;;;;18.11;69.75;101907.59;4994130;28;96834;-27
2023/06/28 01:57:04;;;;;;;7.75;2.13;;;;;;;18.14;70.85;101919.22;4993147;28;99430;-27
2023/06/28 01:59:30;;;;;;;5.78;2.13;;;;;;;18.09;71.45;101909.56;4993873;28;97781;-28
2023/06/28 02:01:57;;;;;;;7.40;2.55;;;;;;;18.10;70.27;101914.06;4993910;28;96745;-27
2023/06/28 02:04:22;;;;;;;2.90;1.63;;;;;;;18.12;70.28;101921.19;4993986;28;96773;-27
2023/06/28 02:06:47;;;;;;;4.90;1.88;;;;;;;18.14;70.63;101916.47;4994097;28;97292;-27
2023/06/28 02:09:13;;;;;;;8.57;1.38;;;;;;;18.12;71.41;101912.09;4993844;28;96706;-27
2023/06/28 02:11:38;;;;;;;3.63;1.52;;;;;;;18.07;70.29;101912.44;4993923;28;96507;-27
2023/06/28 02:14:04;;;;;;;3.33;1.15;;;;;;;18.05;73.24;101911.69;4994168;28;96722;-27
2023/06/28 02:16:31;;;;;;;3.85;1.08;;;;;;;18.02;71.94;101907.31;4993650;28;97861;-27
2023/06/28 02:18:57;;;;;;;2.63;1.17;;;;;;;18.03;71.94;101913.66;4993304;28;97820;-27
2023/06/28 02:21:23;;;;;;;3.25;1.23;;;;;;;18.09;71.47;101913.22;4993204;28;96732;-29
2023/06/28 02:23:48;;;;;;;3.40;1.40;;;;;;;18.10;70.58;101906.72;4993854;28;96701;-27
2023/06/28 02:26:13;;;;;;;2.95;1.38;;;;;;;18.12;71.64;101904.75;4993621;28;97342;-27
2023/06/28 02:28:39;;;;;;;5.43;1.30;;;;;;;18.09;72.47;101899.50;4993393;28;97504;-27
2023/06/28 02:31:04;;;;;;;6.65;1.90;;;;;;;18.14;73.08;101905.50;4993689;28;96425;-27
2023/06/28 02:33:30;;;;;;;2.42;1.27;;;;;;;18.04;71.56;101894.38;4993496;28;96766;-27
2023/06/28 02:35:55;;;;;;;3.05;1.30;;;;;;;18.09;72.55;101899.50;4998933;28;97925;-27
2023/06/28 02:38:20;;;;;;;6.82;1.83;;;;;;;18.04;72.96;101894.38;5013459;28;99695;-27
2023/06/28 02:40:46;;;;;;;3.50;1.70;;;;;;;18.06;72.76;101894.22;5013717;28;96769;-27
2023/06/28 02:43:12;;;;;;;2.40;1.25;;;;;;;18.08;73.02;101902.34;5011874;28;96805;-28
2023/06/28 02:45:37;;;;;;;6.13;1.27;;;;;;;18.04;75.63;101897.09;5012756;28;97335;-27
2023/06/28 02:48:02;;;;;;;3.63;1.25;;;;;;;18.04;72.38;101898.94;5012598;28;99430;-27
2023/06/28 02:50:28;;;;;;;2.38;1.38;;;;;;;18.08;74.93;101892.25;5013558;28;96747;-28
2023/06/28 02:52:53;;;;;;;4.20;1.60;;;;;;;18.03;74.39;101898.06;5013097;28;96819;-28
2023/06/28 02:55:18;;;;;;;6.65;1.63;;;;;;;18.00;74.16;101889.22;5011667;28;98459;-28
2023/06/28 02:57:44;;;;;;;6.38;1.73;;;;;;;17.95;73.91;101886.84;5012846;28;97584;-27
2023/06/28 03:00:10;;;;;;;3.30;1.48;;;;;;;17.88;73.57;101880.06;5012731;28;96622;-26
2023/06/28 03:02:35;;;;;;;2.78;1.58;;;;;;;17.90;74.87;101900.03;5011512;28;97125;-27
2023/06/28 03:05:01;;;;;;;3.88;1.27;;;;;;;17.94;75.10;101890.56;5012978;28;97311;-27
2023/06/28 03:07:26;;;;;;;4.57;1.58;;;;;;;17.96;74.74;101893.19;5012488;28;99636;-27
2023/06/28 03:09:52;;;;;;;3.63;1.17;;;;;;;17.91;76.73;101892.66;5012435;28;96468;-28
2023/06/28 03:12:17;;;;;;;2.55;1.25;;;;;;;17.83;75.76;101888.66;5012851;28;96758;-27
2023/06/28 03:14:43;;;;;;;4.80;1.15;;;;;;;17.84;75.97;101892.25;5012586;28;99399;-27
2023/06/28 03:17:09;;;;;;;6.53;1.50;;;;;;;17.82;75.75;101895.09;5011014;28;100702;-27
2023/06/28 03:19:35;;;;;;;6.53;1.40;;;;;;;17.86;77.29;101889.41;5012937;28;96648;-27
2023/06/28 03:22:01;;;;;;;3.83;1.58;;;;;;;17.84;76.77;101895.00;5012685;28;96857;-27
2023/06/28 03:24:26;;;;;;;5.07;1.42;;;;;;;17.86;76.41;101898.50;5012309;28;99322;-27
2023/06/28 03:26:51;;;;;;;2.38;1.33;;;;;;;17.89;76.87;101892.78;5013151;28;97244;-28
2023/06/28 03:29:17;;;;;;;2.90;1.42;;;;;;;17.89;76.03;101878.19;5012785;28;96941;-27
2023/06/28 03:31:42;;;;;;;2.20;1.25;;;;;;;17.90;75.49;101889.06;5012235;28;97051;-27
2023/06/28 03:34:07;;;;;;;3.67;1.27;;;;;;;17.88;76.26;101891.03;5011739;28;98103;-27
2023/06/28 03:36:34;;;;;;;3.35;1.23;;;;;;;17.80;77.41;101883.41;5011671;28;96800;-28
2023/06/28 03:38:59;;;;;;;3.08;1.58;;;;;;;17.78;75.99;101881.69;5012441;28;96657;-27
2023/06/28 03:41:27;;;;;;;4.28;1.65;;;;;;;17.79;77.17;101878.84;5012421;28;96740;-27
2023/06/28 03:43:52;;;;;;;3.70;1.80;;;;;;;17.77;75.58;101860.78;5010846;28;101332;-27
2023/06/28 03:46:18;;;;;;;4.15;1.70;;;;;;;17.78;75.21;101871.63;5011846;28;99176;-27
2023/06/28 03:48:43;;;;;;;4.45;1.48;;;;;;;17.74;75.60;101878.34;5012417;28;96510;-27
2023/06/28 03:51:09;;;;;;;4.45;1.85;;;;;;;17.70;76.00;101868.59;5012476;28;96790;-27
2023/06/28 03:53:34;;;;;;;5.80;2.08;;;;;;;17.73;75.43;101864.72;5012273;28;98027;-27
2023/06/28 03:55:59;;;;;;;2.28;1.58;;;;;;;17.77;75.12;101872.63;5012180;28;97815;-27
2023/06/28 03:58:25;;;;;;;3.30;1.58;;;;;;;17.74;76.29;101863.75;5011740;28;96565;-27
2023/06/28 04:00:52;;;;;;;5.03;1.80;;;;;;;17.71;74.77;101861.22;5012117;28;96869;-29
2023/06/28 04:03:18;;;;;;;3.97;1.83;;;;;;;17.74;74.39;101875.59;5011889;28;99806;-29
2023/06/28 04:05:43;;;;;;;3.40;1.80;;;;;;;17.70;74.85;101867.72;5012096;28;97854;-27
2023/06/28 04:08:08;;;;;;;5.82;1.73;;;;;;;17.65;77.25;101869.94;5012280;28;96488;-28
2023/06/28 04:10:35;;;;;;;2.85;1.50;;;;;;;17.70;76.38;101870.47;5012234;28;96741;-27
2023/06/28 04:13:01;;;;;;;2.58;1.33;;;;;;;17.67;76.32;101874.31;5010341;28;101276;-27
2023/06/28 04:15:26;;;;;;;4.40;1.50;;;;;;;17.61;74.97;101864.69;5014289;28;99083;-30
2023/06/28 04:17:51;;;;;;;7.47;2.08;;;;;;;17.58;75.81;101866.78;5015340;28;96618;-28
2023/06/28 04:20:17;;;;;;;4.75;1.58;;;;;;;17.63;76.81;101865.44;5015467;28;96763;-27
2023/06/28 04:22:42;;;;;;;3.45;1.63;;;;;;;17.60;76.19;101862.06;5014976;28;97984;-27
2023/06/28 04:25:08;;;;;;;5.78;1.90;;;;;;;17.68;76.60;101873.31;5015176;28;98745;-27
2023/06/28 04:27:33;;;;;;;2.88;1.65;;;;;;;17.64;76.81;101866.31;5015400;28;96476;-28
2023/06/28 04:29:58;;;;;;;3.80;2.00;;;;;;;17.63;76.40;101865.44;5015245;28;96799;-27
2023/06/28 04:32:26;;;;;;;3.90;1.45;;;;;;;17.67;76.89;101874.31;5015128;28;97902;-26
2023/06/28 04:34:53;;;;;;;4.32;1.70;;;;;;;17.68;77.76;101869.69;5014788;28;97292;-28
2023/06/28 04:37:28;;;;;;;4.25;1.52;;;;;;;17.67;77.97;101866.09;5013449;28;96738;-27
2023/06/28 04:39:58;;;;;;;4.78;1.70;;;;;;;17.62;76.24;101865.56;5014170;28;96804;-27
2023/06/28 04:42:24;;;;;;;3.28;1.60;;;;;;;17.63;77.86;101865.44;5014830;28;99791;-28
2023/06/28 04:44:49;;;;;;;4.22;1.85;;;;;;;17.66;77.21;101874.41;5014836;28;98139;-27
2023/06/28 04:47:16;;;;;;;4.85;2.33;;;;;;;17.63;77.00;101868.16;5014525;28;96582;-27
2023/06/28 04:49:49;;;;;;;7.28;1.55;;;;;;;17.66;77.15;101869.81;5013595;28;97083;-27
2023/06/28 04:52:16;;;;;;;8.70;2.08;;;;;;;17.60;76.50;101867.53;5013398;28;101569;-27
2023/06/28 04:54:41;;;;;;;9.32;1.65;;;;;;;17.62;76.30;101862.81;5013295;28;101444;-28
2023/06/28 04:57:07;;;;;;;5.28;1.67;;;;;;;17.62;75.37;101869.16;5014942;28;96596;-27
2023/06/28 04:59:33;;;;;;;4.45;1.52;;;;;;;17.66;75.77;101867.06;5015027;28;96743;-29
2023/06/28 05:01:58;;;;;;;2.60;1.27;;;;;;;17.68;75.71;101869.69;5013227;28;101239;-27
2023/06/28 05:04:24;;;;;;;4.05;2.00;;;;;;;17.72;74.55;101857.53;5014868;28;99066;-28
2023/06/28 05:06:51;;;;;;;2.83;1.60;;;;;;;17.78;75.64;101860.69;5015013;28;96493;-27
2023/06/28 05:09:17;;;;;;;3.50;1.55;;;;;;;17.79;74.96;101850.59;5014610;28;96836;-27
2023/06/28 05:11:43;;;;;;;5.05;1.70;;;;;;;17.77;75.20;101861.66;5012397;28;101079;-32
2023/06/28 05:14:09;;;;;;;4.32;1.80;;;;;;;17.68;75.60;101856.00;5014263;28;99087;-29
2023/06/28 05:16:34;;;;;;;5.20;1.80;;;;;;;17.69;75.94;101868.72;5014186;28;96638;-29
2023/06/28 05:18:59;;;;;;;5.10;1.35;;;;;;;17.70;75.50;101860.38;5013877;28;96809;-28
2023/06/28 05:21:25;;;;;;;6.57;1.55;;;;;;;17.65;77.27;101842.53;5014499;28;97860;-27
2023/06/28 05:23:50;;;;;;;5.40;1.67;;;;;;;17.71;75.49;101859.41;5014341;28;99392;-27
2023/06/28 05:26:15;;;;;;;3.30;1.42;;;;;;;17.68;76.12;101856.88;5013139;28;96598;-27
2023/06/28 05:28:40;;;;;;;5.32;1.90;;;;;;;17.62;76.30;101844.50;5014846;28;96761;-27
2023/06/28 05:31:06;;;;;;;2.97;1.48;;;;;;;17.60;76.58;101846.50;5014454;28;98058;-27
2023/06/28 05:33:32;;;;;;;3.17;2.10;;;;;;;17.63;76.45;101850.84;5014099;28;99089;-27
2023/06/28 05:35:57;;;;;;;3.05;1.63;;;;;;;17.59;77.51;101850.22;5012781;28;96864;-28
2023/06/28 05:38:22;;;;;;;5.85;1.90;;;;;;;17.59;78.13;101858.44;5011552;28;97267;-29
2023/06/28 05:40:53;;;;;;;8.93;2.30;;;;;;;17.51;76.86;101838.94;5013597;28;99230;-28
2023/06/28 05:43:21;;;;;;;4.10;1.80;;;;;;;17.58;77.37;101856.69;5014093;28;99348;-27
2023/06/28 05:45:46;;;;;;;6.60;2.00;;;;;;;17.54;77.24;101844.22;5014039;28;96659;-27
2023/06/28 05:48:11;;;;;;;5.25;2.00;;;;;;;17.60;77.37;101851.97;5014385;28;96779;-28
2023/06/28 05:50:37;;;;;;;3.35;2.00;;;;;;;17.61;78.61;101852.84;5014108;28;98418;-27
2023/06/28 05:53:02;;;;;;;3.25;1.50;;;;;;;17.59;78.30;101857.56;5014369;28;97280;-28
2023/06/28 05:55:27;;;;;;;4.93;2.00;;;;;;;17.60;79.21;101851.09;5013994;28;96688;-28
2023/06/28 05:57:53;;;;;;;5.18;1.92;;;;;;;17.62;78.21;101857.34;5014199;28;96813;-27
2023/06/28 06:00:19;;;;;;;3.83;1.90;;;;;;;17.59;77.83;101850.22;5012946;28;99367;-28
2023/06/28 06:02:44;;;;;;;5.80;2.20;;;;;;;17.58;77.15;101851.19;5012244;28;100717;-28
2023/06/28 06:05:13;;;;;;;5.88;2.08;;;;;;;17.56;77.93;101850.44;5013968;28;96477;-27
2023/06/28 06:07:39;;;;;;;5.70;1.80;;;;;;;17.56;78.79;101855.06;5013800;28;96766;-27
2023/06/28 06:10:05;;;;;;;8.15;2.42;;;;;;;17.55;78.16;101856.06;5012086;28;100825;-27
2023/06/28 06:12:31;;;;;;;6.75;2.33;;;;;;;17.55;78.59;101853.31;5012190;28;101372;-27
2023/06/28 06:14:57;;;;;;;11.60;2.30;;;;;;;17.55;78.24;101847.84;5013881;28;96445;-27
2023/06/28 06:17:22;;;;;;;7.32;2.10;;;;;;;17.56;77.66;101839.47;5012575;28;96748;-28
2023/06/28 06:19:47;;;;;;;5.90;2.03;;;;;;;17.59;78.62;101844.75;5013816;28;97417;-27
2023/06/28 06:22:13;;;;;;;5.40;2.47;;;;;;;17.56;77.77;101850.44;5013654;28;103502;-28
2023/06/28 06:24:38;;;;;;;4.45;2.35;;;;;;;17.54;79.06;101846.06;5012599;28;96724;-27
2023/06/28 06:27:04;;;;;;;3.78;1.65;;;;;;;17.57;77.82;101854.09;5013395;28;96817;-27
2023/06/28 06:29:29;;;;;;;6.22;2.58;;;;;;;17.60;77.15;101851.09;5013218;28;98938;-27
2023/06/28 06:31:55;;;;;;;6.65;2.25;;;;;;;17.57;79.50;101849.47;5010849;28;101322;-27
2023/06/28 06:34:20;;;;;;;4.22;2.22;;;;;;;17.58;78.01;101836.63;5013463;28;96457;-28
2023/06/28 06:36:45;;;;;;;8.32;2.22;;;;;;;17.56;77.39;101834.00;5012977;28;96947;-27
2023/06/28 06:39:11;;;;;;;4.43;2.08;;;;;;;17.65;78.90;101854.38;5012503;28;99314;-27
2023/06/28 06:41:36;;;;;;;3.80;1.90;;;;;;;17.68;78.90;101851.38;5013586;28;97947;-27
2023/06/28 06:44:01;;;;;;;4.47;2.20;;;;;;;17.68;78.51;101845.91;5011811;28;96529;-27
2023/06/28 06:46:27;;;;;;;4.25;2.13;;;;;;;17.73;77.57;101854.69;5013172;28;96770;-27
2023/06/28 06:48:53;;;;;;;8.55;1.77;;;;;;;17.69;78.98;101850.41;5012630;28;97881;-27
2023/06/28 06:51:19;;;;;;;4.85;2.13;;;;;;;17.78;77.91;101852.47;5011553;28;100901;-27
2023/06/28 06:53:44;;;;;;;3.58;1.83;;;;;;;17.79;78.16;101851.44;5013268;28;96731;-28
2023/06/28 06:56:10;;;;;;;7.40;2.97;;;;;;;17.85;77.81;101847.38;5013102;28;96876;-28
2023/06/28 06:58:36;;;;;;;6.35;2.10;;;;;;;17.79;76.96;101847.84;5012642;28;99424;-27
2023/06/28 07:01:02;;;;;;;5.00;2.22;;;;;;;17.86;76.27;101851.03;5012608;28;99342;-27
2023/06/28 07:03:27;;;;;;;6.75;1.90;;;;;;;17.93;77.16;101852.31;5013066;28;96445;-27
2023/06/28 07:05:52;;;;;;;5.70;2.13;;;;;;;18.00;77.54;101859.94;5013370;28;96758;-28
2023/06/28 07:08:18;;;;;;;4.75;2.20;;;;;;;18.02;77.63;101863.44;5012784;28;97883;-28
2023/06/28 07:10:43;;;;;;;3.75;1.85;;;;;;;18.03;77.63;101853.34;5012579;28;97820;-27
2023/06/28 07:13:10;;;;;;;4.47;1.98;;;;;;;18.17;76.33;101861.38;5012325;28;96572;-27
2023/06/28 07:15:36;;;;;;;4.72;2.38;;;;;;;18.26;77.42;101862.53;5011188;28;97410;-27
2023/06/28 07:18:01;;;;;;;4.88;2.40;;;;;;;18.27;75.96;101864.28;5011062;28;100732;-27
2023/06/28 07:20:27;;;;;;;4.55;2.08;;;;;;;18.35;75.79;101869.16;5012653;28;97279;-27
2023/06/28 07:22:52;;;;;;;5.45;2.42;;;;;;;18.35;75.65;101869.16;5012700;28;96472;-28
2023/06/28 07:25:17;;;;;;;5.00;2.15;;;;;;;18.35;76.37;101863.66;5012495;28;96638;-27
2023/06/28 07:27:43;;;;;;;5.75;1.95;;;;;;;18.42;75.80;101864.94;5012493;28;97433;-28
2023/06/28 07:30:08;;;;;;;5.95;1.90;;;;;;;18.45;76.12;101870.19;5012737;28;97318;-27
2023/06/28 07:32:34;;;;;;;4.50;2.08;;;;;;;18.49;75.52;101871.69;5012651;28;96481;-28
2023/06/28 07:35:00;;;;;;;5.32;2.40;;;;;;;18.49;75.07;101868.06;5012137;28;96726;-27
2023/06/28 07:37:25;;;;;;;3.72;1.77;;;;;;;18.53;75.55;101864.97;5011610;28;97958;-28
2023/06/28 07:39:51;;;;;;;5.22;2.08;;;;;;;18.54;76.97;101855.72;5012199;28;97848;-28
2023/06/28 07:42:16;;;;;;;4.97;1.92;;;;;;;18.51;76.15;101855.97;5012389;28;97197;-27
2023/06/28 07:44:43;;;;;;;8.90;2.50;;;;;;;18.57;76.17;101866.47;5012374;28;96752;-27
2023/06/28 07:47:08;;;;;;;5.00;2.20;;;;;;;18.62;76.79;101866.13;5010760;28;100802;-27
2023/06/28 07:49:34;;;;;;;8.23;2.63;;;;;;;18.71;76.65;101864.50;5011011;28;106997;-27
2023/06/28 07:52:00;;;;;;;8.07;2.47;;;;;;;18.80;76.02;101861.06;5012338;28;96457;-28
2023/06/28 07:54:25;;;;;;;3.88;2.15;;;;;;;18.82;76.54;101851.69;5012694;28;96725;-27
2023/06/28 07:56:50;;;;;;;7.45;2.60;;;;;;;18.94;75.67;101852.56;5010676;28;99344;-27
2023/06/28 07:59:19;;;;;;;8.50;2.55;;;;;;;19.12;75.18;101861.19;5011993;28;98291;-28
2023/06/28 08:01:45;;;;;;;9.73;2.80;;;;;;;19.20;74.55;101846.84;5010123;28;96837;-28
2023/06/28 08:04:10;;;;;;;5.03;1.95;;;;;;;19.30;75.21;101854.16;5011812;28;96832;-28
2023/06/28 08:06:35;;;;;;;7.78;2.38;;;;;;;19.50;74.66;101852.53;5011794;28;99625;-27
2023/06/28 08:09:01;;;;;;;4.68;2.33;;;;;;;19.66;73.74;101846.66;5011706;28;99125;-27
2023/06/28 08:11:27;;;;;;;5.78;2.88;;;;;;;19.82;73.44;101848.13;5011877;28;96469;-28
2023/06/28 08:13:52;;;;;;;6.00;2.92;;;;;;;20.21;72.79;101851.19;5010588;28;96807;-28
2023/06/28 08:16:17;;;;;;;10.05;2.90;;;;;;;20.71;71.55;101851.41;5011933;28;97502;-27
2023/06/28 08:18:43;;;;;;;9.23;2.42;;;;;;;20.90;71.25;101847.91;5012137;28;97751;-27
2023/06/28 08:21:08;;;;;;;5.78;2.80;;;;;;;21.27;70.24;101852.84;5012336;28;96449;-28
2023/06/28 08:23:34;;;;;;;4.57;2.60;;;;;;;21.41;69.62;101858.88;5011863;28;96924;-27
2023/06/28 08:25:59;;;;;;;5.40;2.60;;;;;;;21.36;69.59;101852.03;5010962;28;99332;-27
2023/06/28 08:28:24;;;;;;;5.30;2.70;;;;;;;21.29;69.89;101856.34;5011632;28;97777;-28
2023/06/28 08:30:50;;;;;;;7.75;2.53;;;;;;;21.10;70.16;101857.16;5011823;28;96561;-27
2023/06/28 08:33:15;;;;;;;10.23;2.58;;;;;;;20.91;70.55;101863.44;5011881;28;96840;-27
2023/06/28 08:35:40;;;;;;;5.88;2.83;;;;;;;20.77;71.72;101856.41;5010614;28;99841;-27
2023/06/28 08:38:06;;;;;;;6.60;3.25;;;;;;;20.69;72.18;101857.09;5011324;28;97754;-27
2023/06/28 08:40:31;;;;;;;9.82;2.70;;;;;;;20.64;71.87;101853.88;5011436;28;97733;-27
2023/06/28 08:43:03;;;;;;;6.50;2.63;;;;;;;20.55;72.63;101858.28;5011911;28;96868;-27
2023/06/28 08:45:33;;;;;;;12.18;3.50;;;;;;;20.49;73.22;101863.44;5011410;28;98953;-27
2023/06/28 08:48:00;;;;;;;7.43;3.38;;;;;;;20.49;73.08;101868.94;5009943;28;101177;-27
2023/06/28 08:50:26;;;;;;;11.55;3.10;;;;;;;20.45;72.66;101862.84;5009359;28;97057;-27
2023/06/28 08:52:52;;;;;;;5.95;3.10;;;;;;;20.44;73.38;101861.06;5010057;28;97464;-27
2023/06/28 08:55:20;;;;;;;7.78;3.03;;;;;;;20.37;73.97;101862.63;5011352;28;97954;-27
2023/06/28 08:57:46;;;;;;;10.90;3.55;;;;;;;20.33;73.30;101869.38;5009680;28;101323;-27
2023/06/28 09:00:12;;;;;;;9.13;3.20;;;;;;;20.37;74.32;101866.22;5010060;28;96633;-27
2023/06/28 09:02:41;;;;;;;7.85;3.33;;;;;;;20.47;73.67;101868.19;5013048;28;97040;-28
2023/06/28 09:05:08;;;;;;;6.30;3.05;;;;;;;20.54;74.43;101866.66;5014278;28;98581;-29
2023/06/28 09:07:34;;;;;;;7.95;3.70;;;;;;;20.51;73.38;101861.41;5013359;28;101909;-27
2023/06/28 09:10:00;;;;;;;11.23;3.55;;;;;;;20.47;73.71;101863.56;5013345;28;96792;-27
2023/06/28 09:12:26;;;;;;;7.40;3.50;;;;;;;20.48;73.89;101856.19;5014683;28;96813;-28
2023/06/28 09:14:52;;;;;;;7.57;3.38;;;;;;;20.50;73.98;101854.19;5012502;28;100903;-27
2023/06/28 09:17:18;;;;;;;7.63;3.47;;;;;;;20.46;73.46;101847.19;5014567;28;97766;-26
2023/06/28 09:19:44;;;;;;;11.38;3.55;;;;;;;20.50;73.70;101848.69;5012852;28;96712;-27
2023/06/28 09:22:10;;;;;;;6.82;3.55;;;;;;;20.56;73.33;101848.16;5014627;28;96523;-27
2023/06/28 09:24:36;;;;;;;8.13;3.50;;;;;;;20.60;73.45;101848.75;5014418;28;98890;-27
2023/06/28 09:27:06;;;;;;;9.60;3.50;;;;;;;20.69;73.56;101857.09;5012957;28;100816;-27
2023/06/28 09:29:31;;;;;;;12.00;4.57;;;;;;;20.73;72.73;101844.75;5012874;28;96628;-27
2023/06/28 09:31:57;;;;;;;10.75;4.07;;;;;;;20.83;72.72;101852.22;5014593;28;96827;-27
2023/06/28 09:34:23;;;;;;;10.45;4.25;;;;;;;20.75;73.06;101858.41;5014135;28;97377;-28
2023/06/28 09:36:53;;;;;;;10.70;4.72;;;;;;;20.64;73.66;101845.59;5011931;28;101060;-27
2023/06/28 09:39:22;;;;;;;9.98;4.30;;;;;;;20.73;73.60;101857.66;5012220;28;97162;-27
2023/06/28 09:41:49;;;;;;;12.20;4.43;;;;;;;20.75;73.36;101858.41;5012789;28;96819;-27
2023/06/28 09:44:15;;;;;;;9.88;3.75;;;;;;;20.73;73.38;101850.28;5012673;28;101208;-27
2023/06/28 09:46:45;;;;;;;8.35;4.15;;;;;;;20.76;74.07;101847.28;5012450;28;101099;-27
2023/06/28 09:49:23;;;;;;;12.48;4.65;;;;;;;20.88;73.56;101858.19;5012819;28;96566;-27
2023/06/28 09:51:57;;;;;;;7.82;3.75;;;;;;;20.94;72.45;101849.38;5012684;28;96934;-27
2023/06/28 09:54:45;;;;;;;9.93;4.22;;;;;;;21.03;73.53;101850.44;5012427;28;101089;-27
2023/06/28 09:57:11;;;;;;;12.73;4.45;;;;;;;21.15;72.38;101850.19;5012793;28;100955;-27
2023/06/28 09:59:36;;;;;;;10.05;3.60;;;;;;;21.26;72.97;101856.59;5012368;28;96573;-27
2023/06/28 10:02:08;;;;;;;8.70;4.65;;;;;;;21.19;72.57;101842.53;5013881;28;96933;-27
2023/06/28 10:04:36;;;;;;;7.15;4.38;;;;;;;21.31;71.95;101846.94;5011834;28;101146;-28
2023/06/28 10:07:03;;;;;;;10.05;4.70;;;;;;;21.32;71.81;101848.66;5012281;28;101466;-27
2023/06/28 10:09:39;;;;;;;6.90;3.95;;;;;;;21.34;72.26;101854.03;5012372;28;96803;-31
2023/06/28 10:12:19;;;;;;;7.82;4.10;;;;;;;21.41;72.49;101850.59;5011495;28;96748;-27
2023/06/28 10:14:58;;;;;;;8.98;4.20;;;;;;;21.50;71.86;101846.16;5012173;28;101082;-27
2023/06/28 10:17:24;;;;;;;11.90;4.97;;;;;;;21.42;72.04;101840.44;5012174;28;100934;-27
2023/06/28 10:19:50;;;;;;;8.15;4.38;;;;;;;21.49;71.83;101846.28;5013546;28;96553;-28
2023/06/28 10:22:15;;;;;;;8.32;4.53;;;;;;;21.42;71.75;101840.44;5012378;28;96885;-27
2023/06/28 10:24:42;;;;;;;9.85;4.47;;;;;;;21.44;71.36;101832.91;5011966;28;99999;-27
2023/06/28 10:27:08;;;;;;;12.93;4.97;;;;;;;21.49;71.31;101833.34;5011893;28;98860;-27
2023/06/28 10:29:35;;;;;;;10.98;4.90;;;;;;;21.50;71.92;101829.59;5011496;28;97619;-27
2023/06/28 10:32:01;;;;;;;12.55;5.93;;;;;;;21.46;71.66;101828.13;5013373;28;96865;-27
2023/06/28 10:34:28;;;;;;;9.02;4.85;;;;;;;21.53;71.81;101842.22;5011541;28;101083;-27
2023/06/28 10:36:53;;;;;;;11.82;5.88;;;;;;;21.51;71.45;101845.13;5011172;28;101975;-28
2023/06/28 10:39:19;;;;;;;9.80;5.38;;;;;;;21.40;71.79;101835.09;5013292;28;96611;-27
2023/06/28 10:41:44;;;;;;;11.68;5.45;;;;;;;21.37;72.15;101837.22;5013421;28;96748;-27
2023/06/28 10:44:10;;;;;;;14.10;5.35;;;;;;;21.25;71.76;101832.84;5013146;28;98031;-27
2023/06/28 10:46:36;;;;;;;8.00;4.28;;;;;;;21.24;72.06;101840.22;5013507;28;97849;-27
2023/06/28 10:49:03;;;;;;;8.07;4.53;;;;;;;21.14;72.29;101831.03;5011766;28;96557;-27
2023/06/28 10:51:36;;;;;;;7.93;4.97;;;;;;;21.12;72.35;101835.84;5013027;28;96825;-27
2023/06/28 10:54:10;;;;;;;11.23;4.82;;;;;;;21.09;72.72;101839.72;5011028;28;101086;-27
2023/06/28 10:56:47;;;;;;;8.63;4.40;;;;;;;21.01;72.60;101831.28;5012761;28;99304;-27
2023/06/28 10:59:12;;;;;;;10.77;4.40;;;;;;;21.04;72.86;101841.16;5011684;28;97356;-27
2023/06/28 11:01:51;;;;;;;7.70;4.18;;;;;;;20.97;73.23;101840.81;5013141;28;96657;-27
2023/06/28 11:04:24;;;;;;;6.78;3.65;;;;;;;20.97;72.81;101843.59;5012763;28;99360;-27
2023/06/28 11:07:16;;;;;;;8.88;4.47;;;;;;;20.98;72.94;101840.69;5011301;28;100812;-28
2023/06/28 11:10:01;;;;;;;;;;;;;;;20.97;73.28;101851.84;5012014;28;96575;-27
2023/06/28 11:12:26;;;;;;;8.20;3.53;;;;;;;21.00;72.67;101837.81;5013075;28;96779;-29
2023/06/28 11:15:12;;;;;;;10.90;3.90;;;;;;;20.93;73.09;101834.75;5012738;28;98063;-27
2023/06/28 11:17:37;;;;;;;8.45;4.05;;;;;;;20.98;73.07;101848.09;5011069;28;101233;-27
2023/06/28 11:20:07;;;;;;;11.88;4.20;;;;;;;20.92;72.87;101841.25;5012286;28;96877;-27